createdAt,value
2017-11-07T00:00:02.814Z,10.80
2017-11-07T00:02:30.515Z,9.70
2017-11-07T00:04:57.953Z,11.17
2017-11-07T00:07:26.249Z,7.63
2017-11-07T00:09:53.727Z,7.17
2017-11-07T00:12:21.146Z,8.17
2017-11-07T00:14:48.571Z,8.00
2017-11-07T00:17:15.988Z,8.33
2017-11-07T00:19:43.509Z,8.47
2017-11-07T00:22:10.946Z,7.37
2017-11-07T00:24:38.399Z,9.27
2017-11-07T00:27:05.810Z,7.20
2017-11-07T00:29:33.383Z,7.80
2017-11-07T00:32:00.867Z,10.17
2017-11-07T00:34:28.264Z,9.13
2017-11-07T00:36:55.716Z,7.20
2017-11-07T00:39:23.108Z,8.70
2017-11-07T00:41:50.577Z,8.97
2017-11-07T00:44:17.991Z,8.03
2017-11-07T00:46:45.425Z,8.67
2017-11-07T00:49:12.832Z,12.93
2017-11-07T00:51:40.276Z,10.80
2017-11-07T00:54:07.744Z,6.60
2017-11-07T00:56:35.155Z,6.37
2017-11-07T00:59:02.616Z,7.70
2017-11-07T01:01:30.053Z,7.90
2017-11-07T01:03:57.475Z,6.20
2017-11-07T01:06:24.869Z,7.47
2017-11-07T01:08:52.304Z,8.27
2017-11-07T01:11:19.715Z,7.57
2017-11-07T01:13:47.173Z,6.83
2017-11-07T01:16:14.574Z,7.37
2017-11-07T01:18:42.039Z,7.13
2017-11-07T01:21:09.533Z,10.23
2017-11-07T01:23:37.245Z,14.20
2017-11-07T01:26:04.661Z,7.60
2017-11-07T01:28:32.057Z,5.83
2017-11-07T01:30:59.501Z,10.10
2017-11-07T01:33:26.905Z,5.93
2017-11-07T01:35:54.354Z,8.83
2017-11-07T01:38:21.738Z,9.70
2017-11-07T01:40:49.161Z,8.50
2017-11-07T01:43:16.589Z,7.00
2017-11-07T01:45:44.071Z,8.47
2017-11-07T01:48:11.472Z,12.50
2017-11-07T01:50:38.896Z,6.80
2017-11-07T01:53:06.340Z,12.73
2017-11-07T01:55:33.740Z,9.63
2017-11-07T01:58:01.189Z,8.27
2017-11-07T02:00:28.692Z,12.83
2017-11-07T02:02:56.137Z,8.20
2017-11-07T02:05:23.552Z,7.90
2017-11-07T02:07:51.008Z,7.57
2017-11-07T02:10:18.472Z,6.00
2017-11-07T02:12:45.891Z,8.83
2017-11-07T02:15:13.312Z,5.70
2017-11-07T02:17:40.705Z,6.73
2017-11-07T02:20:08.118Z,8.10
2017-11-07T02:22:35.560Z,7.53
2017-11-07T02:25:03.008Z,6.03
2017-11-07T02:27:30.479Z,6.13
2017-11-07T02:29:57.889Z,6.10
2017-11-07T02:32:25.312Z,7.47
2017-11-07T02:34:52.733Z,7.73
2017-11-07T02:37:20.132Z,9.80
2017-11-07T02:39:47.633Z,8.70
2017-11-07T02:42:15.030Z,8.07
2017-11-07T02:44:42.423Z,6.97
2017-11-07T02:47:09.868Z,6.00
2017-11-07T02:49:37.302Z,11.50
2017-11-07T02:52:04.721Z,6.80
2017-11-07T02:54:33.059Z,7.60
2017-11-07T02:57:00.484Z,6.60
2017-11-07T02:59:27.885Z,6.13
2017-11-07T03:01:55.298Z,10.27
2017-11-07T03:04:22.712Z,10.27
2017-11-07T03:06:50.149Z,12.43
2017-11-07T03:09:17.555Z,8.97
2017-11-07T03:11:44.977Z,11.40
2017-11-07T03:14:12.387Z,9.17
2017-11-07T03:16:39.819Z,7.90
2017-11-07T03:19:07.257Z,10.47
2017-11-07T03:21:34.645Z,7.30
2017-11-07T03:24:02.116Z,6.97
2017-11-07T03:26:29.522Z,9.60
2017-11-07T03:28:56.942Z,9.43
2017-11-07T03:31:24.331Z,8.37
2017-11-07T03:33:51.764Z,11.67
2017-11-07T03:36:19.169Z,11.10
2017-11-07T03:38:46.602Z,12.60
2017-11-07T03:41:14.023Z,7.73
2017-11-07T03:43:41.407Z,11.27
2017-11-07T03:46:08.839Z,12.17
2017-11-07T03:48:36.246Z,12.53
2017-11-07T03:51:03.672Z,8.97
2017-11-07T03:53:31.134Z,14.87
2017-11-07T03:55:58.573Z,11.20
2017-11-07T03:58:26.776Z,11.10
2017-11-07T04:00:54.264Z,10.13
2017-11-07T04:03:21.668Z,13.90
2017-11-07T04:05:49.119Z,9.60
2017-11-07T04:08:16.588Z,10.43
2017-11-07T04:10:44.098Z,12.03
2017-11-07T04:13:11.857Z,11.40
2017-11-07T04:15:39.381Z,11.10
2017-11-07T04:19:14.391Z,11.03
2017-11-07T04:21:41.885Z,10.30
2017-11-07T04:24:09.322Z,9.47
2017-11-07T04:26:36.760Z,11.50
2017-11-07T04:29:04.188Z,9.80
2017-11-07T04:31:31.585Z,11.40
2017-11-07T04:33:59.027Z,13.47
2017-11-07T04:36:26.433Z,11.97
2017-11-07T04:38:53.855Z,9.43
2017-11-07T04:41:21.277Z,13.20
2017-11-07T04:43:48.744Z,14.80
2017-11-07T04:46:16.127Z,15.57
2017-11-07T04:48:44.264Z,13.80
2017-11-07T04:51:11.681Z,20.90
2017-11-07T04:53:39.845Z,11.37
2017-11-07T04:56:07.287Z,17.53
2017-11-07T04:58:34.700Z,14.70
2017-11-07T05:01:02.857Z,12.03
2017-11-07T05:03:30.787Z,12.60
2017-11-07T05:05:58.232Z,13.17
2017-11-07T05:08:36.515Z,13.93
2017-11-07T05:11:05.805Z,18.43
2017-11-07T05:13:33.226Z,13.20
2017-11-07T05:16:00.645Z,13.43
2017-11-07T05:18:28.047Z,13.57
2017-11-07T05:20:55.506Z,11.77
2017-11-07T05:23:22.940Z,11.90
2017-11-07T05:25:50.377Z,13.37
2017-11-07T05:28:17.820Z,13.33
2017-11-07T05:30:45.229Z,9.50
2017-11-07T05:33:13.062Z,12.93
2017-11-07T05:35:40.519Z,16.50
2017-11-07T05:38:07.993Z,9.80
2017-11-07T05:40:35.419Z,10.30
2017-11-07T05:43:02.870Z,14.00
2017-11-07T05:45:30.266Z,11.83
2017-11-07T05:47:57.699Z,12.50
2017-11-07T05:50:25.133Z,13.93
2017-11-07T05:52:52.557Z,10.40
2017-11-07T05:55:19.968Z,13.60
2017-11-07T05:57:48.182Z,12.90
2017-11-07T06:00:15.635Z,15.60
2017-11-07T06:02:43.051Z,17.83
2017-11-07T06:05:10.503Z,15.30
2017-11-07T06:07:37.881Z,14.37
2017-11-07T06:10:05.309Z,16.47
2017-11-07T06:12:32.715Z,18.30
2017-11-07T06:15:00.147Z,14.87
2017-11-07T06:17:27.553Z,12.80
2017-11-07T06:19:54.964Z,12.43
2017-11-07T06:22:22.394Z,18.20
2017-11-07T06:24:49.823Z,12.13
2017-11-07T06:27:17.945Z,11.30
2017-11-07T06:29:45.376Z,12.00
2017-11-07T06:32:12.815Z,12.17
2017-11-07T06:34:40.227Z,17.40
2017-11-07T06:37:07.655Z,17.57
2017-11-07T06:39:35.103Z,12.10
2017-11-07T06:42:02.590Z,13.63
2017-11-07T06:44:30.028Z,10.37
2017-11-07T06:46:57.495Z,15.50
2017-11-07T06:49:24.923Z,9.47
2017-11-07T06:51:52.489Z,13.00
2017-11-07T06:54:20.160Z,11.80
2017-11-07T06:56:47.631Z,13.70
2017-11-07T06:59:15.090Z,11.60
2017-11-07T07:01:42.753Z,12.73
2017-11-07T07:04:10.233Z,18.50
2017-11-07T07:06:37.682Z,13.13
2017-11-07T07:09:05.105Z,17.73
2017-11-07T07:11:32.568Z,14.13
2017-11-07T07:14:00.009Z,12.73
2017-11-07T07:16:27.466Z,23.33
2017-11-07T07:18:54.918Z,18.13
2017-11-07T07:21:22.299Z,11.67
2017-11-07T07:23:50.657Z,13.73
2017-11-07T07:26:18.121Z,16.23
2017-11-07T07:28:46.059Z,13.40
2017-11-07T07:31:13.583Z,14.33
2017-11-07T07:33:40.992Z,12.40
2017-11-07T07:36:14.866Z,12.47
2017-11-07T07:38:43.627Z,21.53
2017-11-07T07:41:11.108Z,10.80
2017-11-07T07:43:38.569Z,15.43
2017-11-07T07:46:05.994Z,11.67
2017-11-07T07:48:50.020Z,15.73
2017-11-07T07:51:17.432Z,13.00
2017-11-07T07:53:55.951Z,13.70
2017-11-07T07:56:24.282Z,14.23
2017-11-07T07:58:51.747Z,13.33
2017-11-07T08:01:19.149Z,18.83
2017-11-07T08:03:46.608Z,14.27
2017-11-07T08:06:14.026Z,15.30
2017-11-07T08:08:41.440Z,13.23
2017-11-07T08:11:08.906Z,12.20
2017-11-07T08:13:36.379Z,14.03
2017-11-07T08:16:03.813Z,13.60
2017-11-07T08:18:31.352Z,15.50
2017-11-07T08:20:59.038Z,12.43
2017-11-07T08:23:26.494Z,15.30
2017-11-07T08:25:53.924Z,14.03
2017-11-07T08:28:22.350Z,23.03
2017-11-07T08:30:57.757Z,14.57
2017-11-07T08:33:25.216Z,15.00
2017-11-07T08:35:52.674Z,13.50
2017-11-07T08:38:20.076Z,13.20
2017-11-07T08:40:47.535Z,14.90
2017-11-07T08:43:28.956Z,18.40
2017-11-07T08:45:56.581Z,16.43
2017-11-07T08:48:27.344Z,15.90
2017-11-07T08:50:54.822Z,17.13
2017-11-07T08:53:31.089Z,12.53
2017-11-07T08:55:59.465Z,15.80
2017-11-07T08:58:26.891Z,14.70
2017-11-07T09:01:04.459Z,17.23
2017-11-07T09:03:31.873Z,16.97
2017-11-07T09:05:59.321Z,13.73
2017-11-07T09:08:27.312Z,13.40
2017-11-07T09:10:54.747Z,22.40
2017-11-07T09:13:22.258Z,15.37
2017-11-07T09:15:50.636Z,13.60
2017-11-07T09:18:20.137Z,15.23
2017-11-07T09:20:47.566Z,13.70
2017-11-07T09:23:15.734Z,11.73
2017-11-07T09:25:43.279Z,15.10
2017-11-07T09:28:10.741Z,10.77
2017-11-07T09:30:40.834Z,17.70
2017-11-07T09:33:09.020Z,15.20
2017-11-07T09:35:36.489Z,14.60
2017-11-07T09:38:11.735Z,13.37
2017-11-07T09:40:39.248Z,15.87
2017-11-07T09:45:47.946Z,12.53
2017-11-07T09:48:15.389Z,16.43
2017-11-07T09:50:42.839Z,14.70
2017-11-07T09:53:10.298Z,12.63
2017-11-07T09:55:37.825Z,12.40
2017-11-07T09:58:05.283Z,15.53
2017-11-07T10:00:32.768Z,18.40
2017-11-07T10:03:02.036Z,14.17
2017-11-07T10:05:29.452Z,11.50
2017-11-07T10:07:56.977Z,16.23
2017-11-07T10:10:24.382Z,17.47
2017-11-07T10:12:51.837Z,14.90
2017-11-07T10:15:23.251Z,14.67
2017-11-07T10:17:50.736Z,13.67
2017-11-07T10:20:18.189Z,13.70
2017-11-07T10:22:45.620Z,11.50
2017-11-07T10:25:13.093Z,12.90
2017-11-07T10:27:40.540Z,14.00
2017-11-07T10:30:08.027Z,12.10
2017-11-07T10:32:35.447Z,13.00
2017-11-07T10:35:16.134Z,14.10
2017-11-07T10:37:43.572Z,14.23
2017-11-07T10:40:11.047Z,13.40
2017-11-07T10:42:38.497Z,12.47
2017-11-07T10:45:05.923Z,15.60
2017-11-07T10:47:33.406Z,14.70
2017-11-07T10:50:00.819Z,16.63
2017-11-07T10:52:28.346Z,21.03
2017-11-07T10:54:55.919Z,15.70
2017-11-07T10:57:23.448Z,17.17
2017-11-07T10:59:50.904Z,14.83
2017-11-07T11:02:18.359Z,16.20
2017-11-07T11:04:45.833Z,13.70
2017-11-07T11:07:13.338Z,15.07
2017-11-07T11:09:40.780Z,17.97
2017-11-07T11:12:08.258Z,16.03
2017-11-07T11:14:35.732Z,14.10
2017-11-07T11:17:03.185Z,17.50
2017-11-07T11:19:30.642Z,19.10
2017-11-07T11:22:01.609Z,13.07
2017-11-07T11:24:29.057Z,16.87
2017-11-07T11:26:56.487Z,18.97
2017-11-07T11:29:23.942Z,12.50
2017-11-07T11:31:51.454Z,14.30
2017-11-07T11:34:19.189Z,14.93
2017-11-07T11:36:46.748Z,13.77
2017-11-07T11:39:14.309Z,19.77
2017-11-07T11:41:41.769Z,18.27
2017-11-07T11:44:09.198Z,17.40
2017-11-07T11:46:36.688Z,16.67
2017-11-07T11:49:04.144Z,16.43
2017-11-07T11:51:31.565Z,16.60
2017-11-07T11:53:59.549Z,16.20
2017-11-07T11:56:26.989Z,15.83
2017-11-07T11:58:54.443Z,14.03
2017-11-07T12:01:22.100Z,16.00
2017-11-07T12:03:49.564Z,16.33
2017-11-07T12:06:17.022Z,15.10
2017-11-07T12:08:45.401Z,16.10
2017-11-07T12:11:12.855Z,14.27
2017-11-07T12:13:40.310Z,15.67
2017-11-07T12:16:07.787Z,16.27
2017-11-07T12:18:35.297Z,14.10
2017-11-07T12:21:02.792Z,15.60
2017-11-07T12:23:30.243Z,20.33
2017-11-07T12:25:57.722Z,19.20
2017-11-07T12:28:25.182Z,15.80
2017-11-07T12:30:52.634Z,15.47
2017-11-07T12:33:20.142Z,18.80
2017-11-07T12:35:47.622Z,14.50
2017-11-07T12:38:15.103Z,57.63
2017-11-07T12:40:42.544Z,17.63
2017-11-07T12:43:10.005Z,16.10
2017-11-07T12:45:37.476Z,13.63
2017-11-07T12:48:04.945Z,17.90
2017-11-07T12:50:44.143Z,24.97
2017-11-07T12:53:12.947Z,13.40
2017-11-07T12:55:40.399Z,19.67
2017-11-07T12:58:08.408Z,18.70
2017-11-07T13:00:35.830Z,15.07
2017-11-07T13:03:03.321Z,15.47
2017-11-07T13:05:30.737Z,14.30
2017-11-07T13:07:58.187Z,19.10
2017-11-07T13:10:25.631Z,14.57
2017-11-07T13:12:53.124Z,21.23
2017-11-07T13:15:21.533Z,15.67
2017-11-07T13:17:49.004Z,14.20
2017-11-07T13:20:16.448Z,21.90
2017-11-07T13:22:43.894Z,22.60
2017-11-07T13:25:11.389Z,17.53
2017-11-07T13:27:39.039Z,21.70
2017-11-07T13:30:06.597Z,14.90
2017-11-07T13:32:34.013Z,15.13
2017-11-07T13:35:01.493Z,23.00
2017-11-07T13:37:28.963Z,23.23
2017-11-07T13:39:56.419Z,16.30
2017-11-07T13:42:23.931Z,22.00
2017-11-07T13:44:51.376Z,16.87
2017-11-07T13:47:18.845Z,17.17
2017-11-07T13:49:46.292Z,17.20
2017-11-07T13:52:13.782Z,17.10
2017-11-07T13:54:41.211Z,16.23
2017-11-07T13:57:08.655Z,17.00
2017-11-07T13:59:36.119Z,16.20
2017-11-07T14:02:03.574Z,16.33
2017-11-07T14:04:31.090Z,16.70
2017-11-07T14:06:58.523Z,16.90
2017-11-07T14:09:25.965Z,19.47
2017-11-07T14:11:53.441Z,18.50
2017-11-07T14:14:20.810Z,23.53
2017-11-07T14:16:49.127Z,15.30
2017-11-07T14:19:16.566Z,17.60
2017-11-07T14:21:44.101Z,15.50
2017-11-07T14:24:11.588Z,20.20
2017-11-07T14:26:39.028Z,27.73
2017-11-07T14:29:06.526Z,17.83
2017-11-07T14:31:33.979Z,15.40
2017-11-07T14:34:01.476Z,18.40
2017-11-07T14:36:28.995Z,17.60
2017-11-07T14:38:56.459Z,13.90
2017-11-07T14:41:23.876Z,20.63
2017-11-07T14:43:51.316Z,15.83
2017-11-07T14:46:18.798Z,19.87
2017-11-07T14:48:46.274Z,17.70
2017-11-07T14:51:14.457Z,16.33
2017-11-07T14:53:41.878Z,24.90
2017-11-07T14:56:09.475Z,17.50
2017-11-07T14:58:36.932Z,15.70
2017-11-07T15:01:04.355Z,21.57
2017-11-07T15:03:31.817Z,17.33
2017-11-07T15:05:59.291Z,17.00
2017-11-07T15:08:26.729Z,22.30
2017-11-07T15:10:54.160Z,19.70
2017-11-07T15:13:21.595Z,14.40
2017-11-07T15:15:49.029Z,20.50
2017-11-07T15:18:17.928Z,21.43
2017-11-07T15:20:45.393Z,16.17
2017-11-07T15:23:14.636Z,18.83
2017-11-07T15:25:42.137Z,25.63
2017-11-07T15:28:09.618Z,18.87
2017-11-07T15:30:37.053Z,16.83
2017-11-07T15:33:04.513Z,19.10
2017-11-07T15:35:31.942Z,17.80
2017-11-07T15:37:59.376Z,19.83
2017-11-07T15:40:26.866Z,19.57
2017-11-07T15:42:54.307Z,20.53
2017-11-07T15:45:21.782Z,16.63
2017-11-07T15:47:49.215Z,16.43
2017-11-07T15:50:16.656Z,16.90
2017-11-07T15:52:44.169Z,14.53
2017-11-07T15:55:11.613Z,15.47
2017-11-07T15:57:39.036Z,19.73
2017-11-07T16:00:06.567Z,15.40
2017-11-07T16:02:34.038Z,19.10
2017-11-07T16:05:01.514Z,21.10
2017-11-07T16:07:29.677Z,16.57
2017-11-07T16:09:57.452Z,20.80
2017-11-07T16:12:24.944Z,17.47
2017-11-07T16:14:52.463Z,16.43
2017-11-07T16:17:20.862Z,16.73
2017-11-07T16:19:48.325Z,18.60
2017-11-07T16:22:15.781Z,17.93
2017-11-07T16:24:43.280Z,19.37
2017-11-07T16:27:11.691Z,17.93
2017-11-07T16:29:39.221Z,16.70
2017-11-07T16:32:06.743Z,18.97
2017-11-07T16:34:34.183Z,18.13
2017-11-07T16:37:01.693Z,17.47
2017-11-07T16:39:29.209Z,20.63
2017-11-07T16:41:56.700Z,18.57
2017-11-07T16:44:24.128Z,17.40
2017-11-07T16:46:51.573Z,21.70
2017-11-07T16:49:19.074Z,18.63
2017-11-07T16:51:46.527Z,19.93
2017-11-07T16:54:13.979Z,15.83
2017-11-07T16:56:41.397Z,22.83
2017-11-07T16:59:10.123Z,26.97
2017-11-07T17:01:37.653Z,14.80
2017-11-07T17:04:05.133Z,17.60
2017-11-07T17:06:32.626Z,17.33
2017-11-07T17:09:00.142Z,16.80
2017-11-07T17:11:27.551Z,18.43
2017-11-07T17:13:55.024Z,21.20
2017-11-07T17:16:22.517Z,19.60
2017-11-07T17:18:49.922Z,16.30
2017-11-07T17:21:18.531Z,15.83
2017-11-07T17:23:45.949Z,15.93
2017-11-07T17:26:13.389Z,18.80
2017-11-07T17:28:40.796Z,15.87
2017-11-07T17:31:08.262Z,15.13
2017-11-07T17:33:35.705Z,16.17
2017-11-07T17:36:03.110Z,30.50
2017-11-07T17:38:30.615Z,22.83
2017-11-07T17:40:58.023Z,15.33
2017-11-07T17:43:25.451Z,25.80
2017-11-07T17:45:52.862Z,18.30
2017-11-07T17:48:20.276Z,17.83
2017-11-07T17:50:47.720Z,23.30
2017-11-07T17:53:15.167Z,23.47
2017-11-07T17:55:42.636Z,20.63
2017-11-07T17:58:10.063Z,25.97
2017-11-07T18:00:37.573Z,17.53
2017-11-07T18:03:05.021Z,20.93
2017-11-07T18:05:32.515Z,19.37
2017-11-07T18:08:00.048Z,19.20
2017-11-07T18:10:27.504Z,21.20
2017-11-07T18:12:55.144Z,17.90
2017-11-07T18:15:23.356Z,22.40
2017-11-07T18:17:50.797Z,20.10
2017-11-07T18:20:18.246Z,18.60
2017-11-07T18:22:45.697Z,19.70
2017-11-07T18:25:13.195Z,16.57
2017-11-07T18:27:40.628Z,20.10
2017-11-07T18:30:08.117Z,17.20
2017-11-07T18:32:35.582Z,18.47
2017-11-07T18:35:03.039Z,21.03
2017-11-07T18:37:30.434Z,18.13
2017-11-07T18:39:58.007Z,19.00
2017-11-07T18:42:26.285Z,19.47
2017-11-07T18:44:53.737Z,16.60
2017-11-07T18:47:21.229Z,15.57
2017-11-07T18:49:48.717Z,18.97
2017-11-07T18:52:16.149Z,17.83
2017-11-07T18:54:43.644Z,24.57
2017-11-07T18:57:11.096Z,23.20
2017-11-07T18:59:38.579Z,18.57
2017-11-07T19:02:06.035Z,21.90
2017-11-07T19:04:33.465Z,18.80
2017-11-07T19:07:00.927Z,22.43
2017-11-07T19:09:28.377Z,17.03
2017-11-07T19:11:55.785Z,20.97
2017-11-07T19:14:23.242Z,19.40
2017-11-07T19:16:50.668Z,18.77
2017-11-07T19:19:18.136Z,18.50
2017-11-07T19:21:45.601Z,16.47
2017-11-07T19:24:13.048Z,20.37
2017-11-07T19:26:40.445Z,19.83
2017-11-07T19:29:07.883Z,18.13
2017-11-07T19:31:36.124Z,18.73
2017-11-07T19:34:03.567Z,19.90
2017-11-07T19:36:30.993Z,18.87
2017-11-07T19:38:58.424Z,21.27
2017-11-07T19:41:25.852Z,19.77
2017-11-07T19:43:53.294Z,23.60
2017-11-07T19:46:20.721Z,19.20
2017-11-07T19:48:48.146Z,21.90
2017-11-07T19:51:15.572Z,22.90
2017-11-07T19:53:42.966Z,20.57
2017-11-07T19:56:10.409Z,21.63
2017-11-07T19:58:37.829Z,21.63
2017-11-07T20:01:05.255Z,21.90
2017-11-07T20:03:32.656Z,21.90
2017-11-07T20:06:00.085Z,20.57
2017-11-07T20:08:27.531Z,20.47
2017-11-07T20:10:54.980Z,20.50
2017-11-07T20:13:22.417Z,18.90
2017-11-07T20:15:49.828Z,21.40
2017-11-07T20:18:17.273Z,19.97
2017-11-07T20:20:44.676Z,23.60
2017-11-07T20:23:12.198Z,22.43
2017-11-07T20:25:40.585Z,21.43
2017-11-07T20:28:08.054Z,22.50
2017-11-07T20:30:35.458Z,22.60
2017-11-07T20:33:03.708Z,24.53
2017-11-07T20:35:31.181Z,23.00
2017-11-07T20:37:59.725Z,22.93
2017-11-07T20:40:27.428Z,25.93
2017-11-07T20:42:54.828Z,23.97
2017-11-07T20:45:23.209Z,22.20
2017-11-07T20:47:50.615Z,20.67
2017-11-07T20:50:18.051Z,25.00
2017-11-07T20:52:45.514Z,22.63
2017-11-07T20:55:12.950Z,23.93
2017-11-07T20:57:40.385Z,22.40
2017-11-07T21:00:08.723Z,20.33
2017-11-07T21:02:36.156Z,21.10
2017-11-07T21:05:03.696Z,20.73
2017-11-07T21:07:31.143Z,25.73
2017-11-07T21:09:58.558Z,19.33
2017-11-07T21:12:25.976Z,24.70
2017-11-07T21:14:53.395Z,22.40
2017-11-07T21:17:20.878Z,21.67
2017-11-07T21:19:48.306Z,20.37
2017-11-07T21:22:15.872Z,23.10
2017-11-07T21:24:43.300Z,22.03
2017-11-07T21:27:10.788Z,18.50
2017-11-07T21:29:38.240Z,18.73
2017-11-07T21:32:05.688Z,22.83
2017-11-07T21:34:33.153Z,21.63
2017-11-07T21:37:00.618Z,22.13
2017-11-07T21:39:28.070Z,19.10
2017-11-07T21:41:55.494Z,23.37
2017-11-07T21:44:22.934Z,24.63
2017-11-07T21:46:50.336Z,24.23
2017-11-07T21:49:17.808Z,24.57
2017-11-07T21:51:45.220Z,26.40
2017-11-07T21:54:12.696Z,22.90
2017-11-07T21:56:40.092Z,21.13
2017-11-07T21:59:07.538Z,18.67
2017-11-07T22:01:34.949Z,23.40
2017-11-07T22:04:02.395Z,19.30
2017-11-07T22:06:29.803Z,19.40
2017-11-07T22:08:57.268Z,20.73
2017-11-07T22:11:24.702Z,20.53
2017-11-07T22:13:52.099Z,21.23
2017-11-07T22:16:19.555Z,17.80
2017-11-07T22:18:46.967Z,19.23
2017-11-07T22:21:14.421Z,19.80
2017-11-07T22:23:41.838Z,18.63
2017-11-07T22:26:09.319Z,19.37
2017-11-07T22:28:36.719Z,19.10
2017-11-07T22:31:04.182Z,20.87
2017-11-07T22:33:31.593Z,20.57
2017-11-07T22:35:59.036Z,22.60
2017-11-07T22:38:26.487Z,18.10
2017-11-07T22:40:53.883Z,24.23
2017-11-07T22:43:21.325Z,20.60
2017-11-07T22:45:48.740Z,20.93
2017-11-07T22:48:17.070Z,22.43
2017-11-07T22:50:44.477Z,19.37
2017-11-07T22:53:11.895Z,20.37
2017-11-07T22:55:39.349Z,19.43
2017-11-07T22:58:06.807Z,18.67
2017-11-07T23:00:34.215Z,22.57
2017-11-07T23:03:01.702Z,26.30
2017-11-07T23:05:29.111Z,21.50
2017-11-07T23:07:56.522Z,22.40
2017-11-07T23:10:23.969Z,21.90
2017-11-07T23:12:51.362Z,26.13
2017-11-07T23:15:18.812Z,21.70
2017-11-07T23:17:46.275Z,22.50
2017-11-07T23:20:13.709Z,25.87
2017-11-07T23:22:41.131Z,21.53
2017-11-07T23:25:08.624Z,26.30
2017-11-07T23:27:36.045Z,27.10
2017-11-07T23:30:03.521Z,20.10
2017-11-07T23:32:30.913Z,19.93
2017-11-07T23:34:58.354Z,23.73
2017-11-07T23:37:25.772Z,21.23
2017-11-07T23:39:53.164Z,20.77
2017-11-07T23:42:20.707Z,29.23
2017-11-07T23:44:48.104Z,22.90
2017-11-07T23:47:15.544Z,23.00
2017-11-07T23:49:42.964Z,23.97
2017-11-07T23:52:10.400Z,20.27
2017-11-07T23:54:37.798Z,29.40
2017-11-07T23:57:05.235Z,24.20
2017-11-07T23:59:32.681Z,23.40
